createdAt,value
2019-06-08T00:02:50.372Z,5.60
2019-06-08T00:07:52.839Z,3.63
2019-06-08T00:12:55.297Z,2.63
2019-06-08T00:17:59.436Z,1.97
2019-06-08T00:23:00.233Z,4.07
2019-06-08T00:28:02.690Z,4.27
2019-06-08T00:33:05.147Z,9.70
2019-06-08T00:38:07.608Z,5.37
2019-06-08T00:43:10.117Z,3.23
2019-06-08T00:48:12.573Z,3.37
2019-06-08T00:53:15.114Z,2.10
2019-06-08T00:58:18.075Z,5.53
2019-06-08T01:03:20.048Z,3.23
2019-06-08T01:08:23.812Z,2.30
2019-06-08T01:13:25.008Z,2.73
2019-06-08T01:18:27.524Z,1.57
2019-06-08T01:23:29.911Z,7.73
2019-06-08T01:28:32.392Z,1.80
2019-06-08T01:33:34.963Z,2.67
2019-06-08T01:38:37.423Z,4.77
2019-06-08T01:43:39.890Z,3.10
2019-06-08T01:48:42.357Z,3.23
2019-06-08T01:53:44.830Z,3.50
2019-06-08T01:58:47.289Z,2.57
2019-06-08T02:03:49.746Z,2.93
2019-06-08T02:08:52.204Z,6.13
2019-06-08T02:13:54.661Z,3.13
2019-06-08T02:18:57.175Z,4.77
2019-06-08T02:23:59.633Z,3.53
2019-06-08T02:29:02.158Z,3.63
2019-06-08T02:34:05.902Z,3.20
2019-06-08T02:39:07.079Z,3.90
2019-06-08T02:44:09.550Z,6.17
2019-06-08T02:49:12.011Z,4.60
2019-06-08T02:54:14.472Z,8.20
2019-06-08T02:59:16.960Z,4.37
2019-06-08T03:04:19.436Z,5.77
2019-06-08T03:09:21.906Z,6.37
2019-06-08T03:14:27.001Z,3.87
2019-06-08T03:19:31.207Z,6.03
2019-06-08T03:24:32.502Z,4.33
2019-06-08T03:29:35.080Z,2.50
2019-06-08T03:34:45.821Z,7.33
2019-06-08T03:39:41.219Z,3.50
2019-06-08T03:44:42.879Z,4.50
2019-06-08T03:49:54.874Z,5.50
2019-06-08T03:54:47.111Z,6.83
2019-06-08T03:59:49.309Z,10.53
2019-06-08T04:04:51.776Z,5.30
2019-06-08T04:09:54.250Z,7.03
2019-06-08T04:14:56.710Z,6.60
2019-06-08T04:20:10.619Z,6.77
2019-06-08T04:25:01.649Z,8.27
2019-06-08T04:30:06.769Z,7.60
2019-06-08T04:35:09.446Z,8.60
2019-06-08T04:40:11.850Z,4.80
2019-06-08T04:45:14.324Z,6.43
2019-06-08T04:50:23.518Z,5.07
2019-06-08T04:55:19.361Z,6.60
2019-06-08T05:00:21.834Z,5.53
2019-06-08T05:05:24.294Z,7.03
2019-06-08T05:10:26.751Z,5.40
2019-06-08T05:15:29.223Z,8.03
2019-06-08T05:20:38.940Z,5.47
2019-06-08T05:25:34.220Z,4.37
2019-06-08T05:30:36.683Z,10.90
2019-06-08T05:35:39.472Z,9.50
2019-06-08T05:40:41.624Z,11.80
2019-06-08T05:45:44.095Z,8.17
2019-06-08T05:51:01.418Z,5.80
2019-06-08T05:55:50.180Z,4.93
2019-06-08T06:00:51.500Z,5.83
2019-06-08T06:05:53.965Z,6.83
2019-06-08T06:10:56.428Z,4.20
2019-06-08T06:15:58.898Z,8.60
2019-06-08T06:21:10.777Z,5.10
2019-06-08T06:26:03.854Z,4.33
2019-06-08T06:31:06.298Z,8.77
2019-06-08T06:36:08.771Z,7.40
2019-06-08T06:41:11.224Z,6.40
2019-06-08T06:46:13.848Z,4.57
2019-06-08T06:51:25.640Z,7.73
2019-06-08T06:56:18.795Z,8.77
2019-06-08T07:01:21.262Z,7.70
2019-06-08T07:06:23.736Z,10.83
2019-06-08T07:11:26.208Z,8.77
2019-06-08T07:16:28.669Z,10.13
2019-06-08T07:21:41.207Z,7.03
2019-06-08T07:26:33.630Z,16.53
2019-06-08T07:31:36.087Z,7.93
2019-06-08T07:36:38.562Z,8.77
2019-06-08T07:41:41.025Z,5.60
2019-06-08T07:46:43.500Z,6.17
2019-06-08T07:51:58.764Z,4.67
2019-06-08T07:56:49.818Z,10.33
2019-06-08T08:01:51.893Z,9.33
2019-06-08T08:06:54.581Z,8.37
2019-06-08T08:11:57.037Z,6.60
2019-06-08T08:16:59.109Z,8.03
2019-06-08T08:22:16.338Z,8.37
2019-06-08T08:27:03.931Z,13.67
2019-06-08T08:32:07.559Z,8.43
2019-06-08T08:37:09.650Z,4.10
2019-06-08T08:42:10.744Z,5.47
2019-06-08T08:47:13.208Z,6.63
2019-06-08T08:52:17.475Z,6.77
2019-06-08T08:57:18.268Z,4.03
2019-06-08T09:02:21.362Z,4.15
2019-06-08T09:07:23.023Z,5.55
2019-06-08T09:12:27.587Z,5.10
2019-06-08T09:17:28.089Z,4.78
2019-06-08T09:22:31.222Z,4.30
2019-06-08T09:27:32.869Z,4.97
2019-06-08T09:32:38.008Z,3.72
2019-06-08T09:37:37.849Z,4.68
2019-06-08T09:42:40.266Z,4.28
2019-06-08T09:47:42.720Z,4.53
2019-06-08T09:52:47.725Z,4.68
2019-06-08T09:57:48.541Z,3.75
2019-06-08T10:02:50.122Z,4.85
2019-06-08T10:07:52.587Z,3.28
2019-06-08T10:12:56.975Z,6.25
2019-06-08T10:17:58.826Z,2.83
2019-06-08T10:23:03.266Z,4.53
2019-06-08T10:28:07.768Z,10.40
2019-06-08T10:33:07.115Z,3.97
2019-06-08T10:38:11.655Z,6.03
2019-06-08T10:43:11.363Z,3.72
2019-06-08T10:48:12.324Z,3.03
2019-06-08T10:53:16.657Z,8.03
2019-06-08T10:58:19.351Z,13.60
2019-06-08T11:03:19.849Z,3.57
2019-06-08T11:08:22.314Z,2.93
2019-06-08T11:13:24.782Z,4.50
2019-06-08T11:18:28.678Z,3.80
2019-06-08T11:23:29.735Z,3.13
2019-06-08T11:28:32.187Z,4.60
2019-06-08T11:33:34.650Z,2.80
2019-06-08T11:38:38.229Z,2.77
2019-06-08T11:43:39.622Z,6.23
2019-06-08T11:48:42.108Z,5.17
2019-06-08T11:53:44.609Z,3.70
2019-06-08T11:58:48.576Z,4.03
2019-06-08T12:03:49.501Z,4.17
2019-06-08T12:08:52.003Z,4.07
2019-06-08T12:13:54.661Z,5.30
2019-06-08T12:18:58.637Z,4.30
2019-06-08T12:23:59.607Z,2.12
2019-06-08T12:29:02.115Z,3.77
2019-06-08T12:34:05.184Z,2.07
2019-06-08T12:39:07.903Z,3.12
2019-06-08T12:44:12.294Z,2.27
2019-06-08T12:49:13.210Z,3.10
2019-06-08T12:54:14.470Z,5.50
2019-06-08T12:59:22.445Z,1.98
2019-06-08T13:04:23.361Z,6.05
2019-06-08T13:09:21.882Z,5.03
2019-06-08T13:14:24.360Z,2.80
2019-06-08T13:19:27.619Z,4.10
2019-06-08T13:24:29.286Z,2.37
2019-06-08T13:29:31.741Z,4.68
2019-06-08T13:34:34.373Z,4.82
2019-06-08T13:39:38.765Z,3.03
2019-06-08T13:44:39.315Z,4.90
2019-06-08T13:49:41.776Z,1.93
2019-06-08T13:54:44.266Z,4.65
2019-06-08T13:59:48.438Z,3.05
2019-06-08T14:04:49.285Z,4.53
2019-06-08T14:09:51.697Z,3.93
2019-06-08T14:14:54.181Z,5.67
2019-06-08T14:19:58.694Z,3.23
2019-06-08T14:24:59.125Z,4.07
2019-06-08T14:30:01.588Z,4.80
2019-06-08T14:35:04.064Z,4.03
2019-06-08T14:40:08.151Z,8.10
2019-06-08T14:45:10.894Z,5.57
2019-06-08T14:50:11.467Z,4.53
2019-06-08T14:55:13.928Z,5.40
2019-06-08T15:00:18.840Z,4.57
2019-06-08T15:05:19.920Z,5.93
2019-06-08T15:10:21.745Z,6.47
2019-06-08T15:15:23.969Z,3.23
2019-06-08T15:20:26.435Z,3.10
2019-06-08T15:25:30.008Z,2.63
2019-06-08T15:30:32.779Z,9.10
2019-06-08T15:35:33.843Z,3.37
2019-06-08T15:40:37.911Z,2.33
2019-06-08T15:45:38.801Z,8.20
2019-06-08T15:50:41.269Z,4.20
2019-06-08T15:55:43.738Z,3.70
2019-06-08T16:00:46.189Z,3.13
2019-06-08T16:05:48.653Z,2.93
2019-06-08T16:10:51.136Z,2.53
2019-06-08T16:15:53.654Z,3.50
2019-06-08T16:20:56.103Z,3.13
2019-06-08T16:25:58.587Z,2.67
2019-06-08T16:31:01.066Z,8.60
2019-06-08T16:36:03.557Z,4.50
2019-06-08T16:41:06.030Z,4.67
2019-06-08T16:46:08.503Z,4.67
2019-06-08T16:51:10.975Z,4.60
2019-06-08T16:56:13.565Z,9.80
2019-06-08T17:01:16.025Z,7.63
2019-06-08T17:06:18.503Z,5.83
2019-06-08T17:11:20.978Z,2.97
2019-06-08T17:16:23.451Z,3.80
2019-06-08T17:21:25.902Z,3.40
2019-06-08T17:26:28.390Z,5.13
2019-06-08T17:31:31.085Z,2.80
2019-06-08T17:36:34.289Z,3.50
2019-06-08T17:41:36.099Z,11.07
2019-06-08T17:46:39.144Z,4.20
2019-06-08T17:51:41.795Z,3.13
2019-06-08T17:56:43.515Z,2.67
2019-06-08T18:01:45.717Z,3.10
2019-06-08T18:06:48.176Z,11.10
2019-06-08T18:11:50.646Z,7.30
2019-06-08T18:16:53.113Z,5.90
2019-06-08T18:22:02.923Z,3.03
2019-06-08T18:26:58.549Z,4.13
2019-06-08T18:32:00.525Z,4.77
2019-06-08T18:37:03.057Z,4.30
2019-06-08T18:42:05.463Z,2.67
2019-06-08T18:47:07.941Z,5.33
2019-06-08T18:52:10.439Z,7.63
2019-06-08T18:57:12.909Z,6.00
2019-06-08T19:02:17.897Z,3.30
2019-06-08T19:07:18.153Z,3.13
2019-06-08T19:12:20.362Z,6.03
2019-06-08T19:17:22.827Z,5.83
2019-06-08T19:22:25.304Z,6.53
2019-06-08T19:27:27.835Z,4.57
2019-06-08T19:32:30.238Z,2.93
2019-06-08T19:37:32.924Z,2.93
2019-06-08T19:42:40.592Z,5.03
2019-06-08T19:47:38.389Z,2.50
2019-06-08T19:52:43.754Z,4.50
2019-06-08T19:57:43.350Z,5.67
2019-06-08T20:02:47.970Z,7.07
2019-06-08T20:07:47.599Z,6.30
2019-06-08T20:12:50.956Z,3.97
2019-06-08T20:17:52.617Z,4.57
2019-06-08T20:22:55.099Z,7.50
2019-06-08T20:27:58.737Z,5.80
2019-06-08T20:33:00.062Z,7.00
2019-06-08T20:38:02.551Z,8.63
2019-06-08T20:43:07.031Z,6.30
2019-06-08T20:48:07.521Z,8.30
2019-06-08T20:53:10.038Z,5.27
2019-06-08T20:58:12.466Z,5.97
2019-06-08T21:03:17.406Z,4.60
2019-06-08T21:08:17.568Z,13.83
2019-06-08T21:13:19.890Z,8.90
2019-06-08T21:18:22.354Z,5.63
2019-06-08T21:23:24.824Z,6.10
2019-06-08T21:28:28.013Z,5.63
2019-06-08T21:33:29.772Z,7.57
2019-06-08T21:38:32.239Z,5.63
2019-06-08T21:43:37.287Z,12.23
2019-06-08T21:48:38.150Z,6.33
2019-06-08T21:53:39.654Z,4.93
2019-06-08T21:58:42.117Z,9.10
2019-06-08T22:03:47.046Z,8.47
2019-06-08T22:08:48.145Z,8.70
2019-06-08T22:13:51.139Z,6.97
2019-06-08T22:18:52.981Z,7.10
2019-06-08T22:23:55.862Z,8.67
2019-06-08T22:28:59.282Z,11.43
2019-06-08T22:34:02.089Z,12.17
2019-06-08T22:39:02.700Z,11.67
2019-06-08T22:44:04.389Z,28.80
2019-06-08T22:49:08.003Z,32.33
2019-06-08T22:54:09.385Z,36.50
2019-06-08T22:59:11.861Z,25.43
2019-06-08T23:04:14.375Z,12.67
2019-06-08T23:09:17.999Z,10.60
2019-06-08T23:14:19.310Z,13.27
2019-06-08T23:19:21.784Z,9.67
2019-06-08T23:24:24.247Z,12.73
2019-06-08T23:29:27.368Z,10.97
2019-06-08T23:34:29.178Z,8.60
2019-06-08T23:39:31.654Z,12.97
2019-06-08T23:44:34.119Z,10.07
2019-06-08T23:49:38.019Z,8.40
2019-06-08T23:54:39.046Z,10.37
2019-06-08T23:59:41.497Z,5.70
